»·PEaware :: JZA578 KSFO-KLAX

JZA578 :: KSFO-KLAX

FLIGHT INFORMATION

Flight Status: Arrived
Operator:
Air Canada Jazz
More flights by this operator :: More flights under this callsign
Pilot: Mike G. (11411)
Aircraft: CANADAIR CL-600 CRJ-900
(CRJ9)
More flights by this aircraft type
Origin: KSFO San Francisco Intl
United States
Destination: KLAX Los Angeles Intl
United States
More flights between these airports :: More routes between these airports
Route: SSTIK4 EBAYE BURGL IRNMN2
File this flight plan on PilotEdge
Remarks: RMK / SIMBRIEF
Altitude:
(Current/Filed)
35,000ft
Speed:
(Current/Filed)
442kts
Departed: 29-May-19 11:35 AM
Arrived: 29-May-19 12:30 PM
Distance/Time
Traveled:
292nm/0:55
Distance/Time
To Go:
Arrived

Flight Plot

Page will automatically refresh every two minutes.

Flight plan parsing failed; only flown route is shown


Map Options




Map Legend


Flown Route
Filed Route
Departure Airport
Arrival Airport
Navaid (VOR, NDB)
Fix

Horizontal Profiles

Position Reports

Time Latitude Longitude Heading Altitude Ground
Speed
29-May-19 10:10 37.614331 -122.382371 4 20ft 0kts
29-May-19 10:11 37.614331 -122.382371 4 20ft 0kts
29-May-19 10:12 37.614331 -122.382371 4 20ft 0kts
29-May-19 10:13 37.614331 -122.382371 4 20ft 0kts
29-May-19 10:14 37.614331 -122.382371 4 20ft 0kts
29-May-19 10:15 37.614331 -122.382371 4 20ft 0kts
29-May-19 10:16 37.614331 -122.382371 4 20ft 0kts
29-May-19 10:17 37.614331 -122.382371 4 20ft 0kts
29-May-19 10:18 37.614331 -122.382371 4 20ft 0kts
29-May-19 10:19 37.614331 -122.382371 4 20ft 0kts
29-May-19 10:20 37.614331 -122.382371 4 20ft 0kts
29-May-19 10:21 37.614331 -122.382371 4 20ft 0kts
29-May-19 10:22 37.614331 -122.382371 4 20ft 0kts
29-May-19 10:22 37.614331 -122.382371 4 20ft 0kts
29-May-19 10:24 37.614331 -122.382371 4 20ft 0kts
29-May-19 10:25 37.614331 -122.382371 4 20ft 0kts
29-May-19 10:25 37.614331 -122.382371 4 20ft 0kts
29-May-19 10:26 37.614331 -122.382371 4 20ft 0kts
29-May-19 10:28 37.614331 -122.382371 4 20ft 0kts
29-May-19 10:29 37.614331 -122.382371 4 20ft 0kts
29-May-19 10:29 37.614331 -122.382371 4 20ft 0kts
29-May-19 10:30 37.614331 -122.382371 4 20ft 0kts
29-May-19 10:32 37.614331 -122.382371 4 20ft 0kts
29-May-19 10:32 37.614331 -122.382371 4 20ft 0kts
29-May-19 10:33 37.614331 -122.382371 4 20ft 0kts
29-May-19 10:34 37.614331 -122.382371 4 20ft 0kts
29-May-19 10:35 37.614331 -122.382371 4 20ft 0kts
29-May-19 10:36 37.614331 -122.382371 4 20ft 0kts
29-May-19 10:37 37.614331 -122.382371 4 20ft 0kts
29-May-19 10:38 37.614331 -122.382371 4 20ft 0kts
29-May-19 10:39 37.614331 -122.382371 4 20ft 0kts
29-May-19 10:40 37.614331 -122.382371 4 20ft 0kts
29-May-19 10:41 37.614331 -122.382371 4 20ft 0kts
29-May-19 10:42 37.614331 -122.382371 4 20ft 0kts
29-May-19 10:43 37.614331 -122.382371 4 20ft 0kts
29-May-19 10:44 37.614331 -122.382371 4 20ft 0kts
29-May-19 10:45 37.614331 -122.382371 4 20ft 0kts
29-May-19 10:46 37.614331 -122.382371 4 20ft 0kts
29-May-19 10:47 37.614331 -122.382371 4 20ft 0kts
29-May-19 10:48 37.614331 -122.382371 4 20ft 0kts
29-May-19 10:49 37.614331 -122.382371 4 20ft 0kts
29-May-19 10:50 37.614331 -122.382371 4 20ft 0kts
29-May-19 10:51 37.614331 -122.382371 4 20ft 0kts
29-May-19 10:52 37.614331 -122.382371 4 20ft 0kts
29-May-19 10:53 37.614331 -122.382371 4 20ft 0kts
29-May-19 10:54 37.614331 -122.382371 4 20ft 0kts
29-May-19 10:55 37.614331 -122.382371 4 20ft 0kts
29-May-19 10:56 37.614331 -122.382371 4 20ft 0kts
29-May-19 10:57 37.614331 -122.382371 4 20ft 0kts
29-May-19 10:58 37.614331 -122.382371 4 20ft 0kts
29-May-19 10:59 37.614331 -122.382371 4 20ft 0kts
29-May-19 11:00 37.614331 -122.382371 4 20ft 0kts
29-May-19 11:01 37.614331 -122.382371 4 20ft 0kts
29-May-19 11:02 37.614331 -122.382371 4 20ft 0kts
29-May-19 11:03 37.614331 -122.382371 4 20ft 0kts
29-May-19 11:04 37.614331 -122.382371 4 20ft 0kts
29-May-19 11:05 37.614331 -122.382371 4 20ft 0kts
29-May-19 11:06 37.614331 -122.382371 4 20ft 0kts
29-May-19 11:07 37.614331 -122.382371 4 20ft 0kts
29-May-19 11:08 37.614331 -122.382371 4 20ft 0kts
29-May-19 11:09 37.614331 -122.382371 4 20ft 0kts
29-May-19 11:10 37.614331 -122.382371 4 20ft 0kts
29-May-19 11:11 37.614331 -122.382371 4 20ft 0kts
29-May-19 11:12 37.614331 -122.382371 4 20ft 0kts
29-May-19 11:13 37.614331 -122.382371 4 20ft 0kts
29-May-19 11:14 37.614331 -122.382371 4 20ft 0kts
29-May-19 11:15 37.613915 -122.382416 4 20ft 2kts
29-May-19 11:16 37.613737 -122.382435 4 20ft 0kts
29-May-19 11:17 37.613739 -122.382435 4 20ft 0kts
29-May-19 11:18 37.613740 -122.382435 4 20ft 0kts
29-May-19 11:19 37.613748 -122.382434 4 20ft 0kts
29-May-19 11:20 37.613750 -122.382434 4 20ft 0kts
29-May-19 11:21 37.613752 -122.382434 4 20ft 0kts
29-May-19 11:22 37.613754 -122.382434 4 20ft 0kts
29-May-19 11:23 37.613755 -122.382433 4 20ft 0kts
29-May-19 11:24 37.613757 -122.382433 4 20ft 0kts
29-May-19 11:25 37.613759 -122.382433 4 20ft 0kts
29-May-19 11:26 37.612899 -122.382201 204 20ft 12kts
29-May-19 11:27 37.608510 -122.384426 196 20ft 13kts
29-May-19 11:28 37.609848 -122.383163 30 20ft 23kts
29-May-19 11:29 37.609690 -122.383278 233 20ft 9kts
29-May-19 11:30 37.609407 -122.383341 139 20ft 0kts
29-May-19 11:31 37.609406 -122.383340 139 20ft 0kts
29-May-19 11:32 37.609405 -122.383338 139 20ft 0kts
29-May-19 11:33 37.609125 -122.382363 65 20ft 10kts
29-May-19 11:34 37.618423 -122.375991 27 20ft 130kts
29-May-19 11:35 37.663997 -122.360079 351 2925ft 187kts
29-May-19 11:36 37.706463 -122.405705 261 6331ft 269kts
29-May-19 11:37 37.641831 -122.437715 160 9670ft 292kts
29-May-19 11:38 37.563948 -122.397895 130 10576ft 312kts
29-May-19 11:39 37.535277 -122.303918 144 12312ft 294kts
29-May-19 11:40 37.457951 -122.314246 200 14692ft 294kts
29-May-19 11:41 37.374973 -122.289405 130 15431ft 372kts
29-May-19 11:42 37.327269 -122.171114 128 17778ft 395kts
29-May-19 11:43 37.247160 -122.069876 135 19788ft 426kts
29-May-19 11:44 37.161020 -121.961550 133 21887ft 448kts
29-May-19 11:45 37.070970 -121.849332 133 23903ft 464kts
29-May-19 11:46 36.978325 -121.733953 133 25817ft 475kts
29-May-19 11:47 36.880475 -121.618460 131 26984ft 493kts
29-May-19 11:48 36.787514 -121.496217 133 29586ft 472kts
29-May-19 11:49 36.696079 -121.385916 132 31878ft 451kts
29-May-19 11:50 36.607289 -121.276277 132 33236ft 448kts
29-May-19 11:51 36.519122 -121.168710 133 34343ft 447kts
29-May-19 11:52 36.429266 -121.059279 132 34725ft 461kts
29-May-19 11:53 36.344415 -120.935798 127 34935ft 475kts
29-May-19 11:54 36.259301 -120.815079 129 34963ft 456kts
29-May-19 11:55 36.178036 -120.698408 128 34962ft 440kts
29-May-19 11:56 36.097086 -120.583313 129 34964ft 445kts
29-May-19 11:57 36.015229 -120.467367 129 34962ft 450kts
29-May-19 11:58 35.932546 -120.350578 129 34958ft 454kts
29-May-19 11:59 35.845541 -120.237182 141 34956ft 454kts
29-May-19 12:00 35.735619 -120.162470 148 34958ft 449kts
29-May-19 12:01 35.630805 -120.080154 147 34963ft 446kts
29-May-19 12:02 35.524822 -120.001509 147 34962ft 444kts
29-May-19 12:03 35.419542 -119.922030 148 34943ft 443kts
29-May-19 12:04 35.312830 -119.842072 149 32645ft 449kts
29-May-19 12:05 35.211127 -119.752455 141 30443ft 452kts
29-May-19 12:06 35.111248 -119.658386 144 28248ft 455kts
29-May-19 12:07 35.011267 -119.565366 144 26994ft 446kts
29-May-19 12:08 34.913168 -119.474422 144 26977ft 438kts
29-May-19 12:09 34.816169 -119.387864 146 26972ft 430kts
29-May-19 12:10 34.716594 -119.298651 145 24940ft 445kts
29-May-19 12:11 34.619820 -119.215038 146 23734ft 397kts
29-May-19 12:12 34.530433 -119.137657 145 21606ft 390kts
29-May-19 12:13 34.443669 -119.060600 145 19604ft 382kts
29-May-19 12:14 34.358020 -118.986293 146 17604ft 375kts
29-May-19 12:15 34.276562 -118.912972 143 16525ft 344kts
29-May-19 12:16 34.198685 -118.841836 143 14460ft 354kts
29-May-19 12:17 34.125000 -118.768400 137 12456ft 321kts
29-May-19 12:18 34.063062 -118.699878 138 10454ft 288kts
29-May-19 12:20 34.022752 -118.625399 95 8572ft 271kts
29-May-19 12:21 34.017985 -118.533638 97 7998ft 270kts
29-May-19 12:22 34.010965 -118.446855 87 7991ft 248kts
29-May-19 12:23 34.019008 -118.361708 82 5906ft 257kts
29-May-19 12:24 34.027577 -118.281396 82 3787ft 230kts
29-May-19 12:25 34.009266 -118.219924 172 2979ft 205kts
29-May-19 12:26 33.962681 -118.253597 244 2964ft 201kts
29-May-19 12:27 33.962552 -118.313944 253 2779ft 159kts
29-May-19 12:28 33.956248 -118.361995 263 1107ft 136kts
29-May-19 12:29 33.952177 -118.404221 260 178ft 125kts
29-May-19 12:30 33.949384 -118.425506 235 133ft 21kts
29-May-19 12:31 33.948653 -118.426556 222 133ft 0kts

Navigation Log

Ident Type
Flight plan parsing failed, navigation log unavailable